Time,TemperatureF,DewpointF,PressureIn,WindDirection,WindDirectionDegrees,WindSpeedMPH,WindSpeedGustMPH,Humidity,HourlyPrecipIn,Conditions,Clouds,dailyrainin,SoftwareType,DateUTC
2013-08-23 00:00:00,68.8,60.6,29.84,South,170,1.0,1.0,75,0.00,,,0.00,Wunderground v.1.15,2013-08-23 06:00:00,
2013-08-23 00:30:00,68.3,60.4,29.83,South,172,0.0,0.0,76,0.00,,,0.00,Wunderground v.1.15,2013-08-23 06:30:00,
2013-08-23 01:00:00,67.3,60.2,29.83,SSE,159,2.0,2.0,78,0.00,,,0.00,Wunderground v.1.15,2013-08-23 07:00:00,
2013-08-23 01:30:00,66.8,60.4,29.83,SSE,150,1.0,2.0,80,0.00,,,0.00,Wunderground v.1.15,2013-08-23 07:30:00,
2013-08-23 02:00:00,66.3,60.3,29.82,SE,126,5.0,5.0,81,0.00,,,0.00,Wunderground v.1.15,2013-08-23 08:00:00,
2013-08-23 02:30:00,65.2,59.9,29.81,ESE,114,5.0,5.0,83,0.00,,,0.00,Wunderground v.1.15,2013-08-23 08:30:00,
2013-08-23 03:00:00,64.0,59.7,29.80,SE,137,1.0,1.0,86,0.00,,,0.00,Wunderground v.1.15,2013-08-23 09:00:00,
2013-08-23 03:30:00,64.0,60.1,29.79,SE,138,1.0,2.0,87,0.00,,,0.00,Wunderground v.1.15,2013-08-23 09:30:00,
2013-08-23 04:00:00,65.3,60.0,29.78,SSE,150,4.0,4.0,83,0.00,,,0.00,Wunderground v.1.15,2013-08-23 10:00:00,
2013-08-23 04:30:00,65.0,60.0,29.77,SE,143,6.0,8.0,84,0.00,,,0.00,Wunderground v.1.15,2013-08-23 10:30:00,
2013-08-23 05:00:00,64.2,59.9,29.76,SE,134,3.0,3.0,86,0.00,,,0.00,Wunderground v.1.15,2013-08-23 11:00:00,
2013-08-23 05:30:00,65.2,60.9,29.75,SE,135,5.0,5.0,86,0.00,,,0.00,Wunderground v.1.15,2013-08-23 11:30:00,
2013-08-23 06:00:00,65.5,60.9,29.74,ESE,117,4.0,5.0,85,0.00,,,0.00,Wunderground v.1.15,2013-08-23 12:00:00,
2013-08-23 06:30:00,64.0,60.7,29.74,East,92,2.0,2.0,89,0.00,,,0.00,Wunderground v.1.15,2013-08-23 12:30:00,
2013-08-23 07:00:00,65.8,62.1,29.74,ESE,116,4.0,5.0,88,0.00,,,0.00,Wunderground v.1.15,2013-08-23 13:00:00,
2013-08-23 07:30:00,67.1,62.4,29.73,SSE,162,8.0,8.0,85,0.00,,,0.00,Wunderground v.1.15,2013-08-23 13:30:00,
2013-08-23 08:00:00,69.6,63.5,29.73,ESE,106,8.0,14.0,81,0.00,,,0.00,Wunderground v.1.15,2013-08-23 14:00:00,
2013-08-23 08:30:00,70.9,63.3,29.72,ESE,121,6.0,6.0,77,0.00,,,0.00,Wunderground v.1.15,2013-08-23 14:30:00,
2013-08-23 09:00:00,72.1,63.7,29.72,SE,131,7.0,10.0,75,0.00,,,0.00,Wunderground v.1.15,2013-08-23 15:00:00,
2013-08-23 09:30:00,73.2,64.4,29.71,East,93,5.0,5.0,74,0.00,,,0.00,Wunderground v.1.15,2013-08-23 15:30:00,
2013-08-23 10:00:00,73.9,63.9,29.70,East,81,6.0,6.0,71,0.00,,,0.00,Wunderground v.1.15,2013-08-23 16:00:00,
2013-08-23 10:30:00,76.1,64.8,29.70,South,173,5.0,12.0,68,0.00,,,0.00,Wunderground v.1.15,2013-08-23 16:30:00,
2013-08-23 11:00:00,77.9,65.2,29.69,South,178,4.0,6.0,65,0.00,,,0.00,Wunderground v.1.15,2013-08-23 17:00:00,
2013-08-23 11:30:00,80.3,65.1,29.68,SE,143,4.0,4.0,60,0.00,,,0.00,Wunderground v.1.15,2013-08-23 17:30:00,
2013-08-23 12:00:00,80.9,63.7,29.67,SE,134,6.0,6.0,56,0.00,,,0.00,Wunderground v.1.15,2013-08-23 18:00:00,
2013-08-23 12:30:00,81.1,63.4,29.67,SE,138,4.0,6.0,55,0.00,,,0.00,Wunderground v.1.15,2013-08-23 18:30:00,
2013-08-23 13:00:00,82.6,62.6,29.66,SSW,209,3.0,6.0,51,0.00,,,0.00,Wunderground v.1.15,2013-08-23 19:00:00,
2013-08-23 13:30:00,86.3,61.8,29.65,SSW,194,4.0,4.0,44,0.00,,,0.00,Wunderground v.1.15,2013-08-23 19:30:00,
2013-08-23 14:00:00,86.5,60.7,29.64,SSE,168,3.0,5.0,42,0.00,,,0.00,Wunderground v.1.15,2013-08-23 20:00:00,
2013-08-23 14:30:00,87.8,61.2,29.62,South,174,4.0,4.0,41,0.00,,,0.00,Wunderground v.1.15,2013-08-23 20:30:00,
2013-08-23 15:00:00,89.3,58.1,29.62,ENE,71,5.0,5.0,35,0.00,,,0.00,Wunderground v.1.15,2013-08-23 21:00:00,
2013-08-23 15:30:00,88.8,57.6,29.61,SSE,152,4.0,4.0,35,0.00,,,0.00,Wunderground v.1.15,2013-08-23 21:30:00,
2013-08-23 16:00:00,88.8,58.4,29.60,SW,228,3.0,3.0,36,0.00,,,0.00,Wunderground v.1.15,2013-08-23 22:00:00,
2013-08-23 16:30:00,87.8,59.8,29.59,SE,145,2.0,2.0,39,0.00,,,0.00,Wunderground v.1.15,2013-08-23 22:30:00,
2013-08-23 17:00:00,89.9,58.6,29.57,SSW,195,2.0,3.0,35,0.00,,,0.00,Wunderground v.1.15,2013-08-23 23:00:00,
2013-08-23 17:30:00,90.7,56.8,29.57,SSW,194,1.0,3.0,32,0.00,,,0.00,Wunderground v.1.15,2013-08-23 23:30:00,
2013-08-23 18:00:00,89.3,56.4,29.57,SSE,150,2.0,2.0,33,0.00,,,0.00,Wunderground v.1.15,2013-08-24 00:00:00,
2013-08-23 18:30:00,88.6,58.2,29.56,SSW,202,1.0,1.0,36,0.00,,,0.00,Wunderground v.1.15,2013-08-24 00:30:00,
2013-08-23 19:00:00,87.4,58.7,29.56,South,180,0.0,0.0,38,0.00,,,0.00,Wunderground v.1.15,2013-08-24 01:00:00,
2013-08-23 19:30:00,84.9,59.9,29.56,SSE,150,1.0,1.0,43,0.00,,,0.00,Wunderground v.1.15,2013-08-24 01:30:00,
2013-08-23 20:00:00,82.6,59.7,29.56,SSW,197,0.0,0.0,46,0.00,,,0.00,Wunderground v.1.15,2013-08-24 02:00:00,
2013-08-23 20:30:00,79.8,60.1,29.57,ESE,110,0.0,0.0,51,0.00,,,0.00,Wunderground v.1.15,2013-08-24 02:30:00,
2013-08-23 21:00:00,77.9,59.9,29.58,ESE,114,0.0,0.0,54,0.00,,,0.00,Wunderground v.1.15,2013-08-24 03:00:00,
2013-08-23 21:30:00,76.5,59.6,29.58,SE,127,0.0,0.0,56,0.00,,,0.00,Wunderground v.1.15,2013-08-24 03:30:00,
2013-08-23 22:00:00,75.8,60.0,29.58,ESE,103,0.0,0.0,58,0.00,,,0.00,Wunderground v.1.15,2013-08-24 04:00:00,
2013-08-23 22:30:00,74.2,59.9,29.56,ESE,104,0.0,0.0,61,0.00,,,0.00,Wunderground v.1.15,2013-08-24 04:30:00,
2013-08-23 23:00:00,74.7,59.9,29.57,SE,131,0.0,0.0,60,0.00,,,0.00,Wunderground v.1.15,2013-08-24 05:00:00,
2013-08-23 23:30:00,73.2,60.3,29.56,ESE,113,0.0,0.0,64,0.00,,,0.00,Wunderground v.1.15,2013-08-24 05:30:00,